createdAt,value
2023-04-16T07:36:08.472Z,8.59
2023-04-16T07:39:13.632Z,8.84
2023-04-16T07:42:16.311Z,9.12
2023-04-16T07:45:19.322Z,9.06
2023-04-16T07:48:22.599Z,9.15
2023-04-16T07:51:26.509Z,9.27
2023-04-16T07:54:29.281Z,9.29
2023-04-16T07:57:31.768Z,9.42
2023-04-16T08:00:34.476Z,9.55
2023-04-16T08:03:37.132Z,9.66
2023-04-16T08:06:41.281Z,9.78
2023-04-16T08:09:52.227Z,9.79
2023-04-16T08:12:54.741Z,9.65
2023-04-16T08:15:57.170Z,9.70
2023-04-16T08:19:01.034Z,9.65
2023-04-16T08:22:04.925Z,9.68
2023-04-16T08:25:08.567Z,9.72
2023-04-16T08:28:11.031Z,9.80
2023-04-16T08:31:13.511Z,9.87
2023-04-16T08:34:16.014Z,9.93
2023-04-16T08:37:19.798Z,9.96
2023-04-16T08:40:23.061Z,10.02
2023-04-16T08:43:26.652Z,10.05
2023-04-16T08:46:30.844Z,10.14
2023-04-16T08:49:38.986Z,10.47
2023-04-16T08:52:47.383Z,10.62
2023-04-16T08:55:52.272Z,10.50
2023-04-16T08:58:56.270Z,10.32
2023-04-16T09:01:59.996Z,10.22
2023-04-16T09:05:06.513Z,10.13
2023-04-16T09:09:24.471Z,10.14
2023-04-16T09:12:27.393Z,10.13
2023-04-16T09:15:30.229Z,9.97
2023-04-16T09:18:32.837Z,9.95
2023-04-16T09:21:35.744Z,9.97
2023-04-16T09:24:39.574Z,10.04
2023-04-16T09:27:42.126Z,10.14
2023-04-16T09:30:45.569Z,10.18
2023-04-16T09:34:02.729Z,10.14
2023-04-16T09:37:20.253Z,10.18
2023-04-16T09:40:27.390Z,10.15
2023-04-16T09:43:29.911Z,10.23
2023-04-16T09:46:35.161Z,10.23
2023-04-16T09:49:42.992Z,10.36
2023-04-16T09:52:50.768Z,10.47
2023-04-16T09:55:57.969Z,10.46
2023-04-16T09:59:01.113Z,10.45
2023-04-16T10:02:14.375Z,10.46
2023-04-16T10:05:20.912Z,10.24
2023-04-16T10:08:24.943Z,10.15
2023-04-16T10:11:29.286Z,10.09
2023-04-16T10:14:31.900Z,10.07
2023-04-16T10:17:34.795Z,9.89
2023-04-16T11:08:54.136Z,10.23
2023-04-16T11:11:58.200Z,10.32
2023-04-16T11:15:02.237Z,10.43
2023-04-16T11:18:06.951Z,10.53
2023-04-16T11:21:11.244Z,10.54
2023-04-16T11:24:19.140Z,10.48
2023-04-16T11:27:21.625Z,10.63
2023-04-16T11:30:31.051Z,10.69
2023-04-16T11:33:33.575Z,10.92
2023-04-16T11:36:44.164Z,10.98
2023-04-16T11:39:54.267Z,11.28
2023-04-16T11:42:58.058Z,11.54
2023-04-16T11:46:12.922Z,11.70
2023-04-16T11:49:27.572Z,12.36
2023-04-16T11:52:31.495Z,12.81
2023-04-16T11:55:44.195Z,12.60
2023-04-16T11:58:46.709Z,12.32
2023-04-16T12:01:50.993Z,11.78
2023-04-16T12:05:03.284Z,11.63
2023-04-16T12:08:11.799Z,11.23
2023-04-16T12:11:28.377Z,11.11
2023-04-16T12:14:53.263Z,10.93
2023-04-16T12:18:08.003Z,10.70
2023-04-16T12:21:10.934Z,10.67
2023-04-16T12:24:14.830Z,10.62
2023-04-16T12:27:18.614Z,10.62
2023-04-16T12:30:22.961Z,10.64
2023-04-16T12:33:26.111Z,10.66
2023-04-16T12:36:28.699Z,10.68
2023-04-16T12:39:31.155Z,10.68
2023-04-16T12:42:36.610Z,10.68
2023-04-16T12:45:39.610Z,10.58
2023-04-16T12:48:42.577Z,10.60
2023-04-16T12:51:45.144Z,10.55
